Time;durP1;ratioP1;P1;durP2;ratioP2;P2;SDS_P1;SDS_P2;PMS_P1;PMS_P2;Temp;Humidity;BMP_temperature;BMP_pressure;BME280_temperature;BME280_humidity;BME280_pressure;Samples;Min_cycle;Max_cycle;Signal;HPM_P1;HPM_P2
2021/11/17 02:29:44;;;;;;;30.70;15.90;;;;;;;1.87;82.82;99171.95;214894;1316;25223;-76
2021/11/17 02:35:01;;;;;;;28.10;16.30;;;;;;;1.89;82.88;99179.03;214990;1317;25960;-76
2021/11/17 02:40:30;;;;;;;30.30;16.50;;;;;;;1.92;82.79;99175.86;214975;1322;23015;-75
2021/11/17 02:45:55;;;;;;;32.20;17.10;;;;;;;1.93;82.89;99169.30;214705;1320;22863;-76
2021/11/17 02:51:23;;;;;;;32.20;17.60;;;;;;;1.89;82.93;99167.23;214854;1320;22793;-75
2021/11/17 02:56:26;;;;;;;33.00;18.70;;;;;;;1.87;82.78;99167.07;214867;1320;23164;-75
2021/11/17 03:01:41;;;;;;;27.70;16.00;;;;;;;1.86;82.78;99165.73;214974;1316;22586;-75
2021/11/17 03:07:41;;;;;;;33.00;18.20;;;;;;;1.85;82.74;99163.04;214847;1320;22994;-76
2021/11/17 03:12:50;;;;;;;33.10;18.00;;;;;;;1.85;82.91;99159.45;214260;1322;25358;-75
2021/11/17 03:18:59;;;;;;;32.30;18.30;;;;;;;1.79;82.69;99158.65;215046;1321;25937;-75
2021/11/17 03:24:19;;;;;;;25.30;15.80;;;;;;;1.78;82.82;99157.61;214243;1320;22620;-77
2021/11/17 03:29:50;;;;;;;28.30;14.80;;;;;;;1.74;82.94;99151.96;214835;1316;23876;-76
2021/11/17 03:35:30;;;;;;;28.80;17.10;;;;;;;1.71;82.79;99149.65;214679;1320;23042;-76
2021/11/17 03:40:48;;;;;;;25.10;14.60;;;;;;;1.66;82.68;99144.77;214793;1321;22661;-75
2021/11/17 03:45:54;;;;;;;25.50;15.10;;;;;;;1.65;82.85;99146.20;214745;1321;25281;-75
2021/11/17 03:50:57;;;;;;;29.30;15.50;;;;;;;1.63;82.75;99146.41;214873;1320;23311;-75
2021/11/17 03:56:14;;;;;;;26.00;14.60;;;;;;;1.60;82.71;99143.27;214918;1319;25253;-75
2021/11/17 04:01:30;;;;;;;28.20;15.20;;;;;;;1.59;82.89;99143.29;214921;1316;25239;-76
2021/11/17 04:06:32;;;;;;;25.40;14.40;;;;;;;1.57;82.69;99143.87;214856;1321;23045;-76
2021/11/17 04:11:55;;;;;;;26.10;15.40;;;;;;;1.49;82.43;99140.52;214920;1320;25325;-75
2021/11/17 04:17:42;;;;;;;22.30;14.10;;;;;;;1.41;82.50;99137.86;215049;1322;22870;-75
2021/11/17 04:23:09;;;;;;;28.20;15.90;;;;;;;1.33;82.36;99132.88;214306;1319;25313;-75
2021/11/17 04:28:19;;;;;;;27.20;15.30;;;;;;;1.26;82.27;99137.29;215056;1319;22625;-74
2021/11/17 04:33:31;;;;;;;25.80;14.70;;;;;;;1.18;82.45;99138.25;214981;1321;23208;-75
2021/11/17 04:38:44;;;;;;;30.40;16.40;;;;;;;1.12;82.50;99137.70;214874;1320;25248;-75
2021/11/17 04:44:41;;;;;;;27.00;15.60;;;;;;;1.03;82.30;99135.11;214794;1316;22820;-76
2021/11/17 04:49:49;;;;;;;24.50;13.90;;;;;;;0.94;82.50;99133.80;213659;1321;22697;-75
2021/11/17 04:54:58;;;;;;;25.80;14.70;;;;;;;0.84;82.06;99136.04;214836;1319;22598;-76
2021/11/17 05:00:18;;;;;;;25.20;14.90;;;;;;;0.76;82.39;99132.77;214954;1321;22565;-76
2021/11/17 05:05:24;;;;;;;23.90;13.90;;;;;;;0.68;82.44;99133.33;214924;1316;24206;-75
2021/11/17 05:10:46;;;;;;;24.00;13.60;;;;;;;0.60;82.47;99131.99;214772;1321;253865;-75
2021/11/17 05:16:29;;;;;;;26.80;15.00;;;;;;;0.57;82.65;99127.96;214961;1319;22796;-75
2021/11/17 05:21:56;;;;;;;21.70;13.60;;;;;;;0.55;82.73;99133.75;214870;1320;25338;-76
2021/11/17 05:27:37;;;;;;;19.80;13.00;;;;;;;0.46;82.65;99132.70;215075;1319;22985;-75
2021/11/17 05:32:55;;;;;;;23.40;13.80;;;;;;;0.35;82.75;99130.70;214741;1320;22859;-76
2021/11/17 05:38:14;;;;;;;26.40;14.20;;;;;;;0.30;83.04;99136.30;214972;1317;25384;-75
2021/11/17 05:43:32;;;;;;;26.30;15.80;;;;;;;0.28;83.26;99134.77;215170;1317;22664;-77
2021/11/17 05:49:08;;;;;;;26.20;16.10;;;;;;;0.32;83.35;99138.11;215046;1319;25421;-77
2021/11/17 05:54:29;;;;;;;34.10;18.20;;;;;;;0.43;83.56;99142.90;215105;1318;22607;-76
2021/11/17 05:59:32;;;;;;;30.00;16.50;;;;;;;0.52;83.53;99142.73;215218;1316;22891;-76
2021/11/17 06:04:34;;;;;;;31.50;17.50;;;;;;;0.62;83.81;99134.34;214825;1316;22681;-77
2021/11/17 06:09:36;;;;;;;33.60;19.50;;;;;;;0.74;83.66;99136.41;215031;1322;22619;-76
2021/11/17 06:14:50;;;;;;;37.80;19.00;;;;;;;0.83;83.68;99139.98;214853;1318;25341;-76
2021/11/17 06:19:56;;;;;;;39.50;19.10;;;;;;;0.94;83.73;99136.56;215132;1321;25268;-75
2021/11/17 06:25:01;;;;;;;38.30;20.30;;;;;;;1.07;83.71;99138.80;214918;1316;22670;-76
2021/11/17 06:30:06;;;;;;;36.80;20.60;;;;;;;1.18;83.74;99141.05;215125;1322;22614;-76
2021/11/17 06:35:10;;;;;;;37.00;20.30;;;;;;;1.31;83.63;99138.16;215154;1321;25204;-75
2021/11/17 06:40:15;;;;;;;36.10;20.50;;;;;;;1.42;83.64;99142.97;215022;1319;22681;-75
2021/11/17 06:45:29;;;;;;;40.50;22.70;;;;;;;1.52;83.61;99145.42;215831;1316;22626;-75
2021/11/17 06:50:33;;;;;;;46.00;23.70;;;;;;;1.63;83.24;99148.52;215549;1321;22676;-75
2021/11/17 06:55:37;;;;;;;44.30;24.70;;;;;;;1.72;83.44;99151.27;215338;1321;24905;-75
2021/11/17 07:00:42;;;;;;;43.10;23.20;;;;;;;1.81;83.36;99150.74;215816;1316;26477;-76
2021/11/17 07:05:45;;;;;;;48.80;25.80;;;;;;;1.92;83.38;99150.98;215746;1316;22609;-74
2021/11/17 07:10:48;;;;;;;48.60;26.90;;;;;;;2.02;83.23;99152.89;216039;1313;25272;-74
2021/11/17 07:15:51;;;;;;;50.40;25.70;;;;;;;2.06;83.00;99155.27;215688;1316;23849;-75
2021/11/17 07:20:54;;;;;;;49.60;25.60;;;;;;;2.13;82.96;99148.10;215624;1316;22756;-75
2021/11/17 07:25:56;;;;;;;50.50;24.60;;;;;;;2.20;82.84;99149.88;215388;1319;22595;-75
2021/11/17 07:30:59;;;;;;;50.10;28.80;;;;;;;2.30;83.13;99147.65;215775;1316;25252;-76
2021/11/17 07:36:02;;;;;;;49.00;25.70;;;;;;;2.42;83.14;99142.93;215733;1316;25322;-76
2021/11/17 07:41:08;;;;;;;54.80;29.00;;;;;;;2.60;83.35;99145.92;215640;1318;25214;-75
2021/11/17 07:46:11;;;;;;;53.10;30.00;;;;;;;2.79;83.27;99137.76;215926;1319;22676;-75
2021/11/17 07:51:15;;;;;;;53.80;31.20;;;;;;;2.97;83.11;99143.00;215752;1315;24272;-75
2021/11/17 07:56:18;;;;;;;53.10;30.40;;;;;;;3.13;83.17;99147.55;215971;1316;22737;-75
2021/11/17 08:01:21;;;;;;;65.30;34.60;;;;;;;3.32;82.95;99147.42;215686;1315;25306;-75
2021/11/17 08:06:26;;;;;;;70.50;39.40;;;;;;;3.43;82.75;99146.02;215560;1313;22705;-76
2021/11/17 08:11:29;;;;;;;74.20;39.40;;;;;;;3.55;82.52;99148.02;215581;1315;22641;-76
2021/11/17 08:16:33;;;;;;;68.30;38.70;;;;;;;3.66;82.54;99145.65;215723;1315;22666;-76
2021/11/17 08:21:35;;;;;;;63.20;37.70;;;;;;;3.79;82.59;99146.46;215427;1316;23025;-75
2021/11/17 08:26:38;;;;;;;59.10;36.70;;;;;;;3.96;82.68;99145.71;215729;1313;22819;-75
2021/11/17 08:31:41;;;;;;;60.60;32.00;;;;;;;4.14;82.86;99148.82;215382;1319;22768;-75
2021/11/17 08:36:44;;;;;;;48.60;29.20;;;;;;;4.33;82.75;99145.82;215408;1316;25363;-76
2021/11/17 08:41:47;;;;;;;52.40;29.30;;;;;;;4.51;82.50;99138.92;215543;1316;22622;-76
2021/11/17 08:46:50;;;;;;;56.50;30.80;;;;;;;4.72;82.48;99138.00;215692;1320;22721;-75
2021/11/17 08:51:53;;;;;;;63.60;36.20;;;;;;;4.96;82.65;99144.05;215332;1316;23688;-76
2021/11/17 08:56:58;;;;;;;76.20;46.10;;;;;;;5.17;82.37;99143.84;215386;1316;25661;-76
2021/11/17 09:02:07;;;;;;;61.10;36.70;;;;;;;5.34;82.36;99147.21;215157;1316;25317;-76
2021/11/17 09:07:11;;;;;;;52.00;31.40;;;;;;;5.44;81.93;99147.56;215329;1316;22725;-76
2021/11/17 09:12:14;;;;;;;52.80;31.30;;;;;;;5.52;81.48;99152.71;215283;1317;23534;-75
2021/11/17 09:17:17;;;;;;;48.10;27.60;;;;;;;5.66;81.57;99155.33;215456;1316;25414;-75
2021/11/17 09:22:21;;;;;;;49.50;28.00;;;;;;;5.72;80.84;99150.42;215454;1316;25252;-75
2021/11/17 09:27:24;;;;;;;52.90;30.10;;;;;;;5.69;80.29;99148.57;215573;1316;22752;-76
2021/11/17 09:32:31;;;;;;;58.40;32.50;;;;;;;5.76;80.84;99151.69;215590;1316;22757;-76
2021/11/17 09:37:36;;;;;;;53.00;31.10;;;;;;;5.85;80.65;99147.23;215497;1316;25255;-75
2021/11/17 09:42:45;;;;;;;53.60;31.90;;;;;;;5.74;79.41;99141.61;215688;1316;25371;-75
2021/11/17 09:48:01;;;;;;;60.20;33.50;;;;;;;5.55;79.67;99138.41;215684;1317;22742;-75
2021/11/17 09:53:15;;;;;;;61.70;32.60;;;;;;;5.48;80.02;99131.19;215373;1322;25319;-75
2021/11/17 09:58:40;;;;;;;51.10;29.50;;;;;;;5.42;79.96;99137.48;215412;1316;25319;-75
2021/11/17 10:03:54;;;;;;;56.20;30.60;;;;;;;5.41;80.12;99130.98;215508;1316;22647;-75
2021/11/17 10:14:53;;;;;;;54.10;30.40;;;;;;;5.48;80.33;99123.10;213740;1322;23842;-74
2021/11/17 10:20:12;;;;;;;69.10;37.00;;;;;;;5.52;80.29;99123.21;215267;1320;25411;-75
2021/11/17 10:25:22;;;;;;;63.40;36.30;;;;;;;5.53;80.49;99124.19;215510;1316;25407;-74
2021/11/17 10:30:49;;;;;;;64.20;35.80;;;;;;;5.64;80.75;99113.48;215319;1320;24282;-74
2021/11/17 10:36:00;;;;;;;62.90;35.40;;;;;;;5.78;80.60;99110.30;215516;1319;25376;-75
2021/11/17 10:41:16;;;;;;;65.70;34.30;;;;;;;5.83;80.17;99111.63;215328;1316;23201;-75
2021/11/17 10:46:22;;;;;;;59.50;36.10;;;;;;;5.90;80.23;99111.86;215269;1316;24214;-75
2021/11/17 10:51:32;;;;;;;55.80;32.80;;;;;;;6.09;80.70;99109.70;215349;1318;22626;-76
2021/11/17 10:56:35;;;;;;;50.90;31.50;;;;;;;6.24;80.28;99106.34;215721;1317;23056;-75
2021/11/17 11:01:44;;;;;;;54.60;32.80;;;;;;;6.25;79.97;99106.56;215465;1316;25259;-75
2021/11/17 11:07:09;;;;;;;53.20;32.10;;;;;;;6.18;79.70;99100.54;215591;1316;22865;-76
2021/11/17 11:12:29;;;;;;;52.50;31.10;;;;;;;6.09;79.09;99101.94;215492;1320;25418;-75
2021/11/17 11:17:44;;;;;;;57.00;32.90;;;;;;;6.03;79.32;99104.27;215791;1316;22662;-75
2021/11/17 11:23:13;;;;;;;61.50;34.10;;;;;;;5.97;79.68;99099.62;215249;1316;22728;-75
2021/11/17 11:28:32;;;;;;;58.10;33.60;;;;;;;6.01;79.76;99094.30;215144;1316;22755;-75
2021/11/17 11:33:48;;;;;;;54.80;32.20;;;;;;;6.09;79.93;99097.30;215195;1315;25346;-75
2021/11/17 11:39:14;;;;;;;55.90;32.80;;;;;;;6.08;79.50;99092.46;215321;1315;25499;-75
2021/11/17 11:44:23;;;;;;;57.70;34.40;;;;;;;6.08;79.47;99095.44;215218;1316;22638;-75
2021/11/17 11:49:36;;;;;;;63.70;35.00;;;;;;;6.11;79.87;99096.36;215217;1317;22603;-75
2021/11/17 11:54:51;;;;;;;55.60;32.30;;;;;;;6.25;80.00;99101.73;215656;1316;22875;-76
2021/11/17 12:00:10;;;;;;;63.30;35.80;;;;;;;6.30;79.64;99095.65;215336;1320;25396;-75
2021/11/17 12:05:25;;;;;;;63.40;36.20;;;;;;;6.27;79.44;99097.44;215543;1313;25432;-74
2021/11/17 12:10:35;;;;;;;62.80;35.70;;;;;;;6.23;79.55;99099.30;215398;1316;22625;-75
2021/11/17 12:15:56;;;;;;;58.50;32.60;;;;;;;6.23;79.70;99093.89;215380;1316;24347;-75
2021/11/17 12:20:59;;;;;;;54.50;32.30;;;;;;;6.30;79.64;99093.10;216037;1321;22582;-75
2021/11/17 12:26:17;;;;;;;55.90;34.20;;;;;;;6.38;79.64;99089.66;216063;1316;25220;-76
2021/11/17 12:31:24;;;;;;;55.40;33.00;;;;;;;6.33;79.30;99079.87;216295;1316;26035;-75
2021/11/17 12:36:33;;;;;;;56.40;32.50;;;;;;;6.32;79.37;99077.10;215807;1316;22508;-75
2021/11/17 12:41:38;;;;;;;54.10;30.30;;;;;;;6.31;79.50;99082.46;215850;1315;23036;-75
2021/11/17 12:46:57;;;;;;;50.00;29.40;;;;;;;6.35;79.27;99079.24;216385;1320;22709;-75
2021/11/17 12:52:12;;;;;;;44.70;26.70;;;;;;;6.39;79.46;99074.55;216024;1316;23109;-75
2021/11/17 12:57:39;;;;;;;36.40;21.90;;;;;;;6.39;78.98;99072.48;215261;1315;25366;-75
2021/11/17 13:02:57;;;;;;;31.90;20.10;;;;;;;6.38;78.62;99069.54;215430;1316;22749;-76
2021/11/17 13:08:09;;;;;;;30.90;19.20;;;;;;;6.39;78.56;99073.33;215726;1316;149910;-76
2021/11/17 13:13:24;;;;;;;27.40;18.20;;;;;;;6.41;78.63;99071.63;215648;1316;25392;-75
2021/11/17 13:18:57;;;;;;;29.60;18.10;;;;;;;6.39;78.72;99074.27;215509;1316;23868;-75
2021/11/17 13:24:10;;;;;;;35.10;20.60;;;;;;;6.37;78.70;99078.20;215606;1316;22857;-76
2021/11/17 13:30:00;;;;;;;29.80;19.30;;;;;;;6.33;78.86;99074.88;215282;1315;25117;-76
2021/11/17 13:35:33;;;;;;;30.30;19.70;;;;;;;6.31;78.87;99077.25;215480;1315;23890;-76
2021/11/17 13:40:55;;;;;;;30.70;19.30;;;;;;;6.31;78.77;99072.89;215447;1316;23043;-75
2021/11/17 13:46:18;;;;;;;33.70;20.40;;;;;;;6.31;78.71;99070.01;215188;1319;25456;-76
2021/11/17 13:51:24;;;;;;;31.50;20.70;;;;;;;6.30;79.08;99071.38;215455;1315;25955;-76
2021/11/17 13:56:30;;;;;;;35.30;23.20;;;;;;;6.29;79.41;99069.56;215211;1316;22700;-75
2021/11/17 14:01:33;;;;;;;34.10;22.00;;;;;;;6.31;79.51;99061.65;215492;1316;24314;-75
2021/11/17 14:06:47;;;;;;;37.30;22.20;;;;;;;6.32;78.81;99056.51;215173;1319;22651;-75
2021/11/17 14:11:53;;;;;;;35.80;22.70;;;;;;;6.29;78.90;99060.31;215515;1316;22544;-76
2021/11/17 14:17:14;;;;;;;33.60;20.20;;;;;;;6.25;79.06;99054.21;215131;1316;25408;-76
2021/11/17 14:23:06;;;;;;;33.80;21.50;;;;;;;6.21;79.21;99053.33;215651;1316;25368;-76
2021/11/17 14:28:55;;;;;;;32.90;20.70;;;;;;;6.17;79.19;99057.02;215880;1317;22714;-74
2021/11/17 14:34:30;;;;;;;33.80;21.30;;;;;;;6.15;79.66;99062.10;216410;1316;25281;-75
2021/11/17 14:40:21;;;;;;;31.60;22.10;;;;;;;6.13;79.13;99062.49;216130;1316;25336;-75
2021/11/17 14:45:46;;;;;;;37.20;23.70;;;;;;;6.11;79.24;99063.34;216341;1315;25871;-74
2021/11/17 14:51:08;;;;;;;36.70;23.20;;;;;;;6.12;79.36;99069.80;217185;1315;22745;-75
2021/11/17 14:56:30;;;;;;;41.50;24.50;;;;;;;6.15;79.48;99068.95;215856;1317;25345;-75
2021/11/17 15:02:05;;;;;;;41.80;25.70;;;;;;;6.14;79.76;99066.29;216553;1315;22632;-75
2021/11/17 15:07:44;;;;;;;39.70;23.70;;;;;;;6.13;79.45;99061.54;216254;1316;25390;-75
2021/11/17 15:13:07;;;;;;;40.50;24.30;;;;;;;6.11;79.75;99060.67;216544;1315;22766;-77
2021/11/17 15:18:34;;;;;;;34.90;20.80;;;;;;;6.09;79.45;99066.25;216404;1315;22537;-76
2021/11/17 15:23:52;;;;;;;36.50;21.60;;;;;;;6.05;79.60;99063.45;214894;1316;25305;-75
2021/11/17 15:29:14;;;;;;;36.10;22.50;;;;;;;5.97;79.41;99057.59;215059;1315;22577;-75
2021/11/17 15:34:16;;;;;;;36.90;22.30;;;;;;;5.92;79.57;99060.20;214973;1316;25320;-75
2021/11/17 15:39:38;;;;;;;37.50;23.80;;;;;;;5.89;79.29;99067.92;215164;1315;22757;-77
2021/11/17 15:45:00;;;;;;;36.40;22.00;;;;;;;5.87;79.83;99077.37;215240;1315;24243;-76
2021/11/17 15:50:31;;;;;;;37.10;24.40;;;;;;;5.82;79.78;99079.71;214997;1315;23985;-75
2021/11/17 15:55:54;;;;;;;32.70;21.80;;;;;;;5.81;80.04;99080.98;215222;1313;23819;-75
2021/11/17 16:01:20;;;;;;;34.20;21.80;;;;;;;5.75;79.78;99075.27;215462;1313;22531;-76
2021/11/17 16:07:04;;;;;;;36.40;21.40;;;;;;;5.72;80.14;99066.20;215385;1313;25963;-76
2021/11/17 16:12:30;;;;;;;34.10;22.20;;;;;;;5.70;80.42;99062.99;215294;1313;22600;-77
2021/11/17 16:17:58;;;;;;;32.70;20.90;;;;;;;5.67;80.58;99064.34;214866;1322;22581;-75
2021/11/17 16:23:04;;;;;;;29.90;18.70;;;;;;;5.65;80.29;99064.48;214763;1322;22830;-76
2021/11/17 16:28:17;;;;;;;32.30;16.90;;;;;;;5.64;80.20;99065.48;215003;1321;23125;-76
2021/11/17 16:33:20;;;;;;;29.70;18.70;;;;;;;5.64;80.42;99073.92;215039;1321;22709;-77
2021/11/17 16:38:23;;;;;;;29.30;17.70;;;;;;;5.61;80.53;99077.84;214872;1320;25858;-77
2021/11/17 16:43:26;;;;;;;29.70;18.30;;;;;;;5.63;80.34;99077.11;215127;1321;22593;-76
2021/11/17 16:48:31;;;;;;;28.00;18.00;;;;;;;5.64;80.32;99078.88;215192;1321;24358;-76
2021/11/17 16:53:37;;;;;;;32.40;18.50;;;;;;;5.61;80.30;99084.31;215054;1316;22791;-76
2021/11/17 16:58:41;;;;;;;35.50;19.80;;;;;;;5.58;79.92;99090.17;214758;1319;22603;-76
2021/11/17 17:03:50;;;;;;;39.70;22.90;;;;;;;5.55;80.11;99092.21;215134;1321;22608;-76
2021/11/17 17:08:54;;;;;;;33.50;19.70;;;;;;;5.55;80.16;99095.45;214773;1319;24193;-76
2021/11/17 17:13:56;;;;;;;30.70;19.20;;;;;;;5.51;80.19;99096.58;215045;1321;22687;-76
2021/11/17 17:19:18;;;;;;;30.70;19.00;;;;;;;5.49;80.09;99101.33;214557;1322;24239;-76
2021/11/17 17:24:20;;;;;;;29.60;17.70;;;;;;;5.46;80.43;99103.21;214944;1322;22549;-76
2021/11/17 17:29:24;;;;;;;31.70;19.10;;;;;;;5.45;80.31;99110.17;214865;1321;22771;-76
2021/11/17 17:34:28;;;;;;;33.80;19.70;;;;;;;5.43;80.40;99107.21;214866;1322;22693;-76
2021/11/17 17:39:36;;;;;;;32.90;20.20;;;;;;;5.40;80.21;99110.52;214976;1322;24345;-76
2021/11/17 17:44:53;;;;;;;31.60;18.30;;;;;;;5.39;80.43;99111.36;215172;1321;22601;-76
2021/11/17 17:50:17;;;;;;;31.60;17.60;;;;;;;5.39;80.22;99108.70;214785;1319;25389;-75
2021/11/17 17:55:19;;;;;;;29.20;16.10;;;;;;;5.36;80.40;99109.45;214933;1316;24202;-76
2021/11/17 18:00:26;;;;;;;27.30;16.00;;;;;;;5.34;80.38;99110.12;214885;1321;22585;-75
2021/11/17 18:05:28;;;;;;;26.50;15.60;;;;;;;5.33;80.23;99117.45;214744;1321;25213;-75
2021/11/17 18:10:32;;;;;;;29.60;16.30;;;;;;;5.34;79.93;99123.94;214751;1318;24346;-75
2021/11/17 18:15:36;;;;;;;24.60;15.00;;;;;;;5.36;80.27;99131.83;215038;1320;24993;-75
2021/11/17 18:20:39;;;;;;;30.90;15.70;;;;;;;5.38;79.79;99127.55;215034;1322;24254;-76
2021/11/17 18:26:08;;;;;;;26.80;16.30;;;;;;;5.34;79.54;99128.25;215048;1321;25236;-75
2021/11/17 18:31:22;;;;;;;27.30;16.40;;;;;;;5.31;79.86;99130.05;214739;1322;22615;-75
2021/11/17 18:36:25;;;;;;;29.20;16.50;;;;;;;5.34;79.87;99130.64;214975;1322;22752;-76
2021/11/17 18:41:33;;;;;;;27.00;16.00;;;;;;;5.34;79.68;99131.01;214567;1322;22673;-75
2021/11/17 18:46:39;;;;;;;32.70;18.10;;;;;;;5.32;79.66;99133.91;214948;1320;24398;-75
2021/11/17 18:51:55;;;;;;;29.60;16.60;;;;;;;5.32;79.70;99139.31;214922;1315;22771;-75
2021/11/17 18:57:30;;;;;;;30.20;16.80;;;;;;;5.32;79.72;99144.89;214309;1323;22736;-76
2021/11/17 19:02:37;;;;;;;27.40;15.60;;;;;;;5.31;79.21;99149.09;214400;1324;24254;-75
2021/11/17 19:07:40;;;;;;;28.20;16.10;;;;;;;5.30;79.46;99153.21;215127;1321;24195;-76
2021/11/17 19:12:42;;;;;;;26.80;15.90;;;;;;;5.26;79.24;99159.52;214975;1321;22644;-76
2021/11/17 19:17:44;;;;;;;27.20;14.70;;;;;;;5.22;79.16;99162.45;214861;1320;22596;-75
2021/11/17 19:22:49;;;;;;;27.50;15.20;;;;;;;5.21;79.32;99167.74;214794;1321;24385;-76
2021/11/17 19:27:54;;;;;;;28.90;15.80;;;;;;;5.23;79.18;99172.51;214720;1322;23566;-76
2021/11/17 19:33:07;;;;;;;27.70;16.20;;;;;;;5.24;79.06;99163.91;214674;1321;22526;-76
2021/11/17 19:38:13;;;;;;;28.80;16.10;;;;;;;5.23;79.06;99160.77;214784;1322;22563;-75
2021/11/17 19:43:16;;;;;;;28.50;16.00;;;;;;;5.25;79.20;99167.80;214992;1323;25408;-76
2021/11/17 19:48:19;;;;;;;31.40;17.50;;;;;;;5.27;79.00;99165.18;215170;1320;25524;-75
2021/11/17 19:53:23;;;;;;;30.60;17.20;;;;;;;5.28;78.77;99166.04;214883;1321;22760;-75
2021/11/17 19:58:25;;;;;;;32.00;17.00;;;;;;;5.28;78.73;99173.16;214674;1323;26094;-74
2021/11/17 20:03:29;;;;;;;33.30;18.00;;;;;;;5.28;78.62;99173.75;214402;1323;25294;-74
2021/11/17 20:08:30;;;;;;;28.10;16.80;;;;;;;5.28;78.98;99179.77;214500;1322;22655;-75
2021/11/17 20:13:33;;;;;;;29.70;17.40;;;;;;;5.28;78.65;99183.27;214457;1324;22685;-75
2021/11/17 20:18:35;;;;;;;33.00;18.30;;;;;;;5.29;78.76;99183.76;214740;1321;23075;-75
2021/11/17 20:23:37;;;;;;;29.70;17.70;;;;;;;5.32;78.60;99183.77;214863;1319;24288;-75
2021/11/17 20:28:41;;;;;;;29.80;18.10;;;;;;;5.30;78.52;99189.98;214655;1324;23124;-75
2021/11/17 20:33:43;;;;;;;32.60;17.40;;;;;;;5.29;78.43;99194.38;214729;1323;24394;-75
2021/11/17 20:38:45;;;;;;;29.80;17.00;;;;;;;5.31;78.38;99198.77;214384;1322;22800;-75
2021/11/17 20:43:50;;;;;;;32.30;17.00;;;;;;;5.31;78.82;99207.69;214712;1324;24288;-75
2021/11/17 20:48:53;;;;;;;28.90;17.30;;;;;;;5.34;78.65;99215.80;214739;1323;22588;-74
2021/11/17 20:53:58;;;;;;;24.70;15.00;;;;;;;5.35;78.50;99221.19;214920;1320;22666;-75
2021/11/17 20:59:01;;;;;;;27.50;15.80;;;;;;;5.33;78.63;99226.99;214908;1319;25167;-76
2021/11/17 21:04:04;;;;;;;26.90;15.50;;;;;;;5.30;78.69;99228.34;214663;1322;22588;-75
2021/11/17 21:09:23;;;;;;;29.60;16.70;;;;;;;5.32;78.75;99228.85;214640;1318;269885;-75
2021/11/17 21:14:35;;;;;;;26.40;14.90;;;;;;;5.36;78.77;99228.80;214879;1322;25470;-76
2021/11/17 21:19:40;;;;;;;29.10;16.50;;;;;;;5.40;78.98;99232.89;215182;1320;22642;-75
2021/11/17 21:24:43;;;;;;;26.60;14.60;;;;;;;5.38;78.80;99229.94;214396;1324;22646;-75
2021/11/17 21:29:45;;;;;;;26.20;14.80;;;;;;;5.35;78.87;99231.06;214808;1322;25942;-74
2021/11/17 21:34:48;;;;;;;26.30;14.00;;;;;;;5.31;78.84;99233.93;214636;1320;24275;-75
2021/11/17 21:39:50;;;;;;;25.70;15.00;;;;;;;5.29;79.17;99235.39;214766;1322;22588;-75
2021/11/17 21:44:53;;;;;;;25.20;15.70;;;;;;;5.26;79.22;99229.13;214861;1321;25242;-74
2021/11/17 21:49:54;;;;;;;26.00;14.80;;;;;;;5.19;79.18;99234.68;214794;1322;22771;-75
2021/11/17 21:54:57;;;;;;;26.60;15.10;;;;;;;5.18;79.57;99231.08;214647;1320;24205;-75
2021/11/17 21:59:59;;;;;;;28.70;15.30;;;;;;;5.20;79.61;99234.98;215122;1321;22672;-75
2021/11/17 22:05:01;;;;;;;26.30;15.90;;;;;;;5.14;79.68;99236.96;214738;1320;22719;-75
2021/11/17 22:10:05;;;;;;;29.80;16.90;;;;;;;5.08;79.83;99233.93;214667;1324;22585;-75
2021/11/17 22:15:08;;;;;;;28.50;17.00;;;;;;;5.05;79.90;99229.65;214627;1324;22631;-75
2021/11/17 22:20:10;;;;;;;27.20;16.00;;;;;;;5.04;80.13;99231.86;214681;1322;24273;-75
2021/11/17 22:25:13;;;;;;;27.60;15.60;;;;;;;5.05;80.21;99232.83;215190;1319;22531;-75
2021/11/17 22:30:17;;;;;;;29.80;16.40;;;;;;;5.05;80.33;99238.13;214833;1322;24263;-75
2021/11/17 22:35:29;;;;;;;31.00;16.70;;;;;;;5.05;80.31;99247.42;215233;1320;22560;-75
2021/11/17 22:40:37;;;;;;;29.10;16.40;;;;;;;5.06;80.24;99254.20;214778;1320;24288;-76
2021/11/17 22:45:40;;;;;;;30.20;17.20;;;;;;;5.05;80.43;99244.58;214677;1322;22529;-75
2021/11/17 22:50:41;;;;;;;29.20;16.50;;;;;;;5.04;80.30;99250.80;215120;1319;22648;-75
2021/11/17 22:55:58;;;;;;;31.40;18.70;;;;;;;5.02;80.34;99249.39;215012;1321;25927;-75
2021/11/17 23:01:12;;;;;;;31.90;18.60;;;;;;;5.02;80.40;99249.82;214431;1321;22578;-75
2021/11/17 23:06:16;;;;;;;30.80;17.60;;;;;;;5.05;80.55;99252.74;215027;1322;22763;-75
2021/11/17 23:11:28;;;;;;;35.60;18.90;;;;;;;5.05;80.59;99250.45;215160;1322;22620;-75
2021/11/17 23:16:37;;;;;;;36.80;18.50;;;;;;;5.04;80.49;99257.09;215015;1320;22733;-74
2021/11/17 23:21:42;;;;;;;35.10;18.70;;;;;;;5.07;80.25;99251.52;214641;1321;25342;-75
2021/11/17 23:26:58;;;;;;;33.70;19.00;;;;;;;5.07;80.37;99253.09;214796;1322;25229;-75
2021/11/17 23:32:03;;;;;;;30.50;17.80;;;;;;;5.06;80.42;99263.06;214999;1320;25348;-75
2021/11/17 23:37:06;;;;;;;32.30;17.80;;;;;;;5.07;80.54;99264.67;214812;1321;22601;-74
2021/11/17 23:42:08;;;;;;;36.50;19.30;;;;;;;5.08;80.69;99267.95;214840;1319;24216;-74
2021/11/17 23:47:10;;;;;;;32.60;18.00;;;;;;;5.08;80.55;99261.83;214613;1322;22601;-75
2021/11/17 23:52:12;;;;;;;30.70;18.10;;;;;;;5.08;80.37;99263.79;214683;1322;25436;-75
2021/11/17 23:57:14;;;;;;;30.70;17.30;;;;;;;5.08;80.73;99270.66;214776;1316;22649;-75
